createdAt,value
2024-04-09T01:20:47.883Z,99176
2024-04-09T01:33:44.261Z,99218
2024-04-09T01:53:27.144Z,99244
2024-04-09T01:59:19.575Z,99245
2024-04-09T02:05:12.338Z,99252
2024-04-09T02:11:05.620Z,99270
2024-04-09T02:16:58.791Z,99255
2024-04-09T02:22:51.434Z,99262
2024-04-09T02:28:44.073Z,99284
2024-04-09T02:34:37.948Z,99287
2024-04-09T02:40:29.483Z,99292
2024-04-09T02:46:20.576Z,99321
2024-04-09T02:52:12.827Z,99349
2024-04-09T02:58:04.823Z,99356
2024-04-09T03:03:57.934Z,99360
2024-04-09T03:09:51.755Z,99367
2024-04-09T03:15:46.212Z,99348
2024-04-09T03:21:39.107Z,99306
2024-04-09T03:27:32.783Z,99318
2024-04-09T03:33:25.830Z,99343
2024-04-09T03:39:18.863Z,99306
2024-04-09T03:45:12.987Z,99309
2024-04-09T03:51:05.441Z,99343
2024-04-09T03:56:58.515Z,99426
2024-04-09T04:02:51.424Z,99412
2024-04-09T04:08:44.004Z,99419
2024-04-09T04:14:36.191Z,99402
2024-04-09T04:20:29.693Z,99454
2024-04-09T04:26:21.745Z,99457
2024-04-09T04:32:15.108Z,99447
2024-04-09T04:38:07.628Z,99426
2024-04-09T04:43:59.848Z,99423
2024-04-09T04:49:52.681Z,99465
2024-04-09T04:55:44.785Z,99474
2024-04-09T05:01:37.602Z,99436
2024-04-09T05:07:30.787Z,99417
2024-04-09T05:13:23.087Z,99402
2024-04-09T05:19:17.078Z,99421
2024-04-09T05:25:13.128Z,99499
2024-04-09T05:31:05.702Z,99506
2024-04-09T05:36:58.394Z,99524
2024-04-09T05:42:52.887Z,99526
2024-04-09T05:48:46.351Z,99525
2024-04-09T05:54:49.991Z,99534
2024-04-09T06:00:44.222Z,99564
2024-04-09T06:06:42.113Z,99555
2024-04-09T06:12:47.514Z,99556
2024-04-09T06:19:31.351Z,99558
2024-04-09T06:25:45.150Z,99578
2024-04-09T06:32:01.635Z,99586
2024-04-09T06:38:20.845Z,99561
2024-04-09T07:18:31.406Z,99726
2024-04-09T07:24:51.777Z,99726
2024-04-09T07:44:19.105Z,99730
2024-04-09T07:50:47.641Z,99732
2024-04-09T07:56:54.055Z,99757
2024-04-09T08:58:15.622Z,99931
2024-04-09T09:11:14.637Z,99925
2024-04-09T09:37:47.959Z,99962
2024-04-09T09:50:44.558Z,99939
2024-04-09T09:56:35.537Z,99953
2024-04-09T10:09:40.747Z,99981
2024-04-09T10:29:19.459Z,100018
2024-04-09T10:35:25.291Z,100052
2024-04-09T10:41:19.354Z,100061
2024-04-09T10:47:38.302Z,100064
2024-04-09T11:01:17.787Z,100075
2024-04-09T11:40:56.814Z,100082
2024-04-09T11:47:20.105Z,100082
2024-04-09T11:53:34.397Z,100086
2024-04-09T11:59:49.964Z,100080
2024-04-09T12:40:16.127Z,100109
2024-04-09T12:46:28.954Z,100132
2024-04-09T13:00:40.094Z,100131
2024-04-09T13:07:00.533Z,100131
2024-04-09T13:20:09.916Z,100157
2024-04-09T13:26:16.795Z,100153
2024-04-09T13:39:05.303Z,100156
2024-04-09T13:51:48.982Z,100165
2024-04-09T13:58:04.548Z,100166
2024-04-09T14:11:01.079Z,100159
2024-04-09T14:16:54.566Z,100168
2024-04-09T14:29:25.924Z,100189
2024-04-09T14:35:35.376Z,100201
2024-04-09T14:55:35.673Z,100235
2024-04-09T15:08:14.688Z,100262
2024-04-09T15:14:10.218Z,100265
2024-04-09T15:40:48.103Z,100333
2024-04-09T15:46:41.286Z,100321
2024-04-09T15:52:33.603Z,100314
2024-04-09T16:05:43.735Z,100318
2024-04-09T16:24:53.011Z,100343
2024-04-09T16:37:39.256Z,100345
2024-04-09T16:43:32.211Z,100348
2024-04-09T16:49:24.273Z,100343
2024-04-09T16:55:17.652Z,100348
2024-04-09T17:14:55.675Z,100372
2024-04-09T17:20:54.741Z,100372
2024-04-09T17:26:49.424Z,100378
2024-04-09T17:32:43.099Z,100390
2024-04-09T17:38:39.228Z,100394
2024-04-09T17:44:45.450Z,100401
2024-04-09T19:13:10.514Z,100609
2024-04-09T19:52:42.438Z,100676
2024-04-09T20:19:30.372Z,100713
2024-04-09T20:25:53.065Z,100711
2024-04-09T20:38:55.145Z,100726
2024-04-09T20:58:34.868Z,100733
2024-04-09T21:04:36.575Z,100741
2024-04-09T21:10:45.713Z,100756
2024-04-09T21:16:46.354Z,100760
2024-04-09T22:57:40.594Z,100886
2024-04-09T23:04:03.109Z,100886
2024-04-09T23:10:20.186Z,100894
2024-04-09T23:16:32.215Z,100899
2024-04-09T23:22:27.407Z,100907
